AirNav   Duncan Aviation - Near you to keep you flying
 
 1707 users online  

39WA Tailskid Ranch Airport
Tum Tum, Washington, USA

GOING TO TUM TUM?


FAA INFORMATION EFFECTIVE 04 NOVEMBER 2021

Location

FAA Identifier: 39WA
Lat/Long: 47-51-07.0000N 117-46-55.0000W
47-51.116667N 117-46.916667W
47.8519444,-117.7819444
(estimated)
Elevation: 1910 ft. / 582 m (estimated)
Variation: 18E (1995)
From city: 5 miles SW of TUM TUM, WA
Time zone: UTC -7 (UTC -8 during Standard Time)
Zip code: 99013

Airport Operations

Airport use: Private use. Permission required prior to landing
Activation date: 03/1997
Control tower: no
ARTCC: SEATTLE CENTER
FSS: SEATTLE FLIGHT SERVICE STATION
Attendance: CONTINUOUS
Wind indicator: yes
Segmented circle: no

Airport Communications

UNICOM: 122.725
WX ASOS at DEW (16 nm NE): 135.175 (509-276-2303)
WX ASOS at GEG (17 nm SE): PHONE 509-742-2544

Nearby radio navigation aids

VOR radial/distance  VOR name  Freq  Var
GEGr319/18.3SPOKANE VORTAC115.5021E
COEr258/39.0COEUR D'ALENE VOR/DME108.8019E

 
NDB name  Hdg/Dist  Freq  Var  ID
DEER PARK228/15.936516EDPY -.. .--. -.--

Airport Services

Runway Information

Runway 3/21

Dimensions: 2400 x 50 ft. / 732 x 15 m
Surface: dirt
RUNWAY 3  RUNWAY 21
Traffic pattern: leftright
Obstructions: 50 ft. trees, 345 ft. from runway, 5 ft. right of centerline50 ft. trees, 500 ft. from runway, 35 ft. right of centerline

Airport Ownership and Management from official FAA records

Ownership: Privately-owned
Owner: LARRY & MARIA WEST
5742A CORKSCREW CANYON RD.
TUM TUM, WA 99034-1196
Phone 509-258-6896
Manager: LARRY WEST
5742A CORKSCREW CANYON RD.
TUM TUM, WA 99034-1196
Phone 509-258-6896

Airport Operational Statistics

Aircraft based on the field: 3
Single engine airplanes: 3
    

Additional Remarks

RY 03/21 SOFT DURING SPRING THAW.
MID-FIELD TWY SUBJECT TO FLOODING DURING SPRING THAW.
DEER INVOF RY 03/21 NOV-APR.
FOR CD CTC SPOKANE APCH AT 509-742-2522

Instrument Procedures

There are no published instrument procedures at 39WA.

Some nearby airports with instrument procedures:

KSKA - Fairchild Air Force Base (15 nm S)
KDEW - Deer Park Airport (16 nm NE)
KGEG - Spokane International Airport (17 nm SE)
KSFF - Felts Field Airport (21 nm SE)
KCOE - Coeur d'Alene Airport - Pappy Boyington Field (39 nm E)
 
Loc | Ops | Rwys | IFR | FBO | Links
Com | Nav | Svcs | Stats | Notes
Area around 39WA (Tailskid Ranch Airport)
 
Road maps at: MapQuest Bing Google
 
Aerial photo
No photo
 
Sectional chart

 
Airport distance calculator
Flying to Tailskid Ranch Airport? Find the distance to fly.

From to 39WA

Sunrise and sunset
Times for 30-Nov-2021
 Local
(UTC-8)
 Zulu
(UTC)
Morning civil twilight06:4414:44
Sunrise07:1915:19
Sunset16:0100:01
Evening civil twilight16:3600:36

Current date and time
Zulu (UTC)  30-Nov-2021 18:53:19
Local (UTC-8)  30-Nov-2021 10:53:19
 
METAR
KSKA 
15nm S 
301758Z 17013KT 10SM OVC100 08/08 A3007 RMK AO2A SLP194 T00760075 10076 20058 50006 $
KDEW 
16nm NE 
301753Z AUTO 18003KT 10SM BKN020 08/04 A3011 RMK AO2 SLP202 T00830039 10083 20061 50014
KGEG 
17nm SE 
301753Z 20015KT 10SM FEW030 SCT050 OVC110 08/04 A3009 RMK AO2 SLP196 T00830044 10083 20072 50005
KSFF 
21nm SE 
301753Z 20008KT 10SM OVC070 10/04 A3011 RMK AO2 SLP198 60000 T01000039 10106 20089 53007
TAF
KSKA 
15nm S 
301100Z 3011/0117 17010KT 9999 BKN100 QNH3007INS BECMG 3015/3016 20012G20KT 9999 BKN040 620557 QNH3007INS WND 20015G25KT AFT 3021 TEMPO 3020/3024 VCSH OVC030 BECMG 0100/0101 20012G22KT 9999 SCT010 BKN040 620805 QNH3010INS BECMG 0112/0113 21012G20KT 9999 BKN060 620904 QNH3008INS TX11/3022Z TN06/3011Z
KGEG 
17nm SE 
301738Z 3018/0118 20015G21KT P6SM SCT030 OVC080 FM010000 20012G18KT P6SM VCSH FEW020 OVC050 FM010500 20017G26KT P6SM SCT025 BKN060
NOTAMs
Click for the latest NOTAMs
NOTAMs are issued by the DoD/FAA and will open in a separate window not controlled by AirNav.

 

 
 

Would you like to see your business listed on this page?

 If your business provides an interesting product or service to pilots, flight crews, aircraft, or users of the Tailskid Ranch Airport, you should consider listing it here.  To start the listing process, click on the button below
 
Add a business
 

Other Pages about Tailskid Ranch Airport

Update a link
 
Copyright © AirNav, LLC. All rights reserved. Privacy Policy  Contact